Time;durP1;ratioP1;P1;durP2;ratioP2;P2;SDS_P1;SDS_P2;PMS_P1;PMS_P2;Temp;Humidity;BMP_temperature;BMP_pressure;BME280_temperature;BME280_humidity;BME280_pressure;Samples;Min_cycle;Max_cycle;Signal;HPM_P1;HPM_P2
2022/02/17 00:00:44;;;;;;;0.90;0.43;;;;;;;;;;5091942;28;20531;-70
2022/02/17 00:03:11;;;;;;;0.70;0.50;;;;;;;;;;5089408;28;20448;-69
2022/02/17 00:05:39;;;;;;;0.70;0.47;;;;;;;;;;5091308;28;20449;-69
2022/02/17 00:08:06;;;;;;;0.80;0.50;;;;;;;;;;5082552;28;20886;-69
2022/02/17 00:10:35;;;;;;;0.60;0.40;;;;;;;;;;5090351;28;20456;-69
2022/02/17 00:13:02;;;;;;;0.70;0.47;;;;;;;;;;5090679;28;20445;-69
2022/02/17 00:15:30;;;;;;;1.00;0.40;;;;;;;;;;5090322;28;20811;-69
2022/02/17 00:17:58;;;;;;;0.80;0.50;;;;;;;;;;5090475;28;20455;-69
2022/02/17 00:20:25;;;;;;;0.60;0.40;;;;;;;;;;5089633;28;20999;-69
2022/02/17 00:22:52;;;;;;;1.60;0.50;;;;;;;;;;5077745;28;20456;-69
2022/02/17 00:25:20;;;;;;;0.70;0.60;;;;;;;;;;5090259;28;20539;-69
2022/02/17 00:27:48;;;;;;;0.60;0.40;;;;;;;;;;5090244;28;20524;-69
2022/02/17 00:30:16;;;;;;;0.70;0.50;;;;;;;;;;5090185;28;20532;-69
2022/02/17 00:32:44;;;;;;;0.80;0.40;;;;;;;;;;5091101;28;20463;-69
2022/02/17 00:35:11;;;;;;;0.60;0.40;;;;;;;;;;5090017;28;20444;-69
2022/02/17 00:37:38;;;;;;;0.70;0.50;;;;;;;;;;5090870;28;20449;-69
2022/02/17 00:40:06;;;;;;;0.70;0.50;;;;;;;;;;5091887;28;20504;-70
2022/02/17 00:42:33;;;;;;;0.70;0.50;;;;;;;;;;5090184;28;20460;-71
2022/02/17 00:45:01;;;;;;;0.60;0.40;;;;;;;;;;5085864;28;20527;-69
2022/02/17 00:47:29;;;;;;;0.63;0.40;;;;;;;;;;5090129;28;20456;-69
2022/02/17 00:49:56;;;;;;;0.63;0.40;;;;;;;;;;5079439;28;20611;-69
2022/02/17 00:52:23;;;;;;;1.63;1.10;;;;;;;;;;5090247;28;20495;-68
2022/02/17 00:54:50;;;;;;;3.13;0.63;;;;;;;;;;5090294;28;20467;-69
2022/02/17 00:57:18;;;;;;;0.70;0.50;;;;;;;;;;5089888;28;20882;-70
2022/02/17 00:59:45;;;;;;;0.70;0.40;;;;;;;;;;5090848;28;20540;-69
2022/02/17 01:02:14;;;;;;;1.27;0.50;;;;;;;;;;5089641;28;20940;-70
2022/02/17 01:04:41;;;;;;;0.80;0.50;;;;;;;;;;5089975;28;20451;-69
2022/02/17 01:07:08;;;;;;;0.70;0.50;;;;;;;;;;5090389;28;20452;-70
2022/02/17 01:09:35;;;;;;;1.83;0.50;;;;;;;;;;5090343;28;20502;-70
2022/02/17 01:12:02;;;;;;;1.00;0.40;;;;;;;;;;5090648;28;20795;-70
2022/02/17 01:14:30;;;;;;;0.60;0.40;;;;;;;;;;5089695;28;20460;-70
2022/02/17 01:16:57;;;;;;;0.60;0.50;;;;;;;;;;5090307;28;20490;-70
2022/02/17 01:19:25;;;;;;;0.60;0.40;;;;;;;;;;5089670;28;20462;-70
2022/02/17 01:21:53;;;;;;;0.70;0.40;;;;;;;;;;5090111;28;20449;-70
2022/02/17 01:24:20;;;;;;;0.80;0.50;;;;;;;;;;5089485;28;20531;-70
2022/02/17 01:26:48;;;;;;;0.63;0.40;;;;;;;;;;5090725;28;20448;-70
2022/02/17 01:29:15;;;;;;;0.60;0.40;;;;;;;;;;5089747;28;20480;-70
2022/02/17 01:31:42;;;;;;;0.60;0.40;;;;;;;;;;5090684;28;20811;-70
2022/02/17 01:34:09;;;;;;;0.90;0.53;;;;;;;;;;5089298;28;20974;-70
2022/02/17 01:36:38;;;;;;;0.60;0.40;;;;;;;;;;5090764;28;20487;-70
2022/02/17 01:39:05;;;;;;;0.60;0.40;;;;;;;;;;5081454;28;20517;-70
2022/02/17 01:41:32;;;;;;;0.70;0.40;;;;;;;;;;5089194;28;20451;-71
2022/02/17 01:44:02;;;;;;;0.80;0.50;;;;;;;;;;5085895;28;20486;-71
2022/02/17 01:46:36;;;;;;;0.80;0.50;;;;;;;;;;5078188;28;21007;-71
2022/02/17 01:49:03;;;;;;;0.60;0.40;;;;;;;;;;5090484;28;20437;-70
2022/02/17 01:51:31;;;;;;;0.70;0.40;;;;;;;;;;5092136;28;20463;-70
2022/02/17 01:54:00;;;;;;;0.60;0.40;;;;;;;;;;5090024;28;20880;-71
2022/02/17 01:56:28;;;;;;;0.60;0.40;;;;;;;;;;5092927;28;21010;-69
2022/02/17 01:58:55;;;;;;;1.03;0.47;;;;;;;;;;5093009;28;20990;-70
2022/02/17 02:01:23;;;;;;;0.60;0.40;;;;;;;;;;5092785;28;20492;-70
2022/02/17 02:03:50;;;;;;;0.60;0.40;;;;;;;;;;5093687;28;20452;-72
2022/02/17 02:06:17;;;;;;;0.60;0.40;;;;;;;;;;5092164;28;21037;-71
2022/02/17 02:08:45;;;;;;;0.90;0.50;;;;;;;;;;5093850;28;20448;-71
2022/02/17 02:11:13;;;;;;;0.90;0.50;;;;;;;;;;5093094;28;20539;-70
2022/02/17 02:13:41;;;;;;;0.80;0.40;;;;;;;;;;5093560;28;20491;-70
2022/02/17 02:16:08;;;;;;;0.60;0.40;;;;;;;;;;5093163;28;20474;-70
2022/02/17 02:18:35;;;;;;;0.60;0.50;;;;;;;;;;5091231;28;20455;-70
2022/02/17 02:21:04;;;;;;;0.80;0.50;;;;;;;;;;5088438;28;20456;-71
2022/02/17 02:23:31;;;;;;;0.80;0.40;;;;;;;;;;5092911;28;20498;-70
2022/02/17 02:25:58;;;;;;;1.57;0.50;;;;;;;;;;5092920;28;20800;-70
2022/02/17 02:28:26;;;;;;;1.67;0.40;;;;;;;;;;5092415;28;20440;-70
2022/02/17 02:30:54;;;;;;;1.27;0.40;;;;;;;;;;5093260;28;20451;-70
2022/02/17 02:33:21;;;;;;;0.80;0.40;;;;;;;;;;5091243;28;20460;-70
2022/02/17 02:35:49;;;;;;;3.27;0.60;;;;;;;;;;5079281;28;20455;-70
2022/02/17 02:38:19;;;;;;;3.23;0.50;;;;;;;;;;5092812;28;20451;-70
2022/02/17 02:40:47;;;;;;;0.80;0.50;;;;;;;;;;5092551;28;20469;-70
2022/02/17 02:43:14;;;;;;;0.70;0.40;;;;;;;;;;5091875;28;20559;-70
2022/02/17 02:45:43;;;;;;;0.63;0.40;;;;;;;;;;5092520;28;20509;-70
2022/02/17 02:48:11;;;;;;;0.90;0.50;;;;;;;;;;5092174;28;20463;-70
2022/02/17 02:50:38;;;;;;;1.00;0.50;;;;;;;;;;5092178;28;20936;-70
2022/02/17 02:53:06;;;;;;;0.70;0.50;;;;;;;;;;5092628;28;20499;-70
2022/02/17 02:55:34;;;;;;;1.17;0.43;;;;;;;;;;5091733;28;20499;-70
2022/02/17 02:58:01;;;;;;;0.70;0.40;;;;;;;;;;5090468;28;20586;-70
2022/02/17 03:00:29;;;;;;;0.60;0.40;;;;;;;;;;5092075;28;20531;-70
2022/02/17 03:02:56;;;;;;;0.80;0.50;;;;;;;;;;5092544;28;20448;-70
2022/02/17 03:05:23;;;;;;;0.80;0.50;;;;;;;;;;5090813;28;20535;-70
2022/02/17 03:07:52;;;;;;;0.77;0.43;;;;;;;;;;5092505;28;20550;-71
2022/02/17 03:10:20;;;;;;;0.80;0.50;;;;;;;;;;5091562;28;20456;-71
2022/02/17 03:12:48;;;;;;;0.73;0.40;;;;;;;;;;5091937;28;20536;-71
2022/02/17 03:15:16;;;;;;;0.70;0.40;;;;;;;;;;5090838;28;20527;-71
2022/02/17 03:17:43;;;;;;;1.53;0.47;;;;;;;;;;5092510;28;20478;-71
2022/02/17 03:20:10;;;;;;;1.33;0.50;;;;;;;;;;5091569;28;20487;-71
2022/02/17 03:22:38;;;;;;;1.73;0.50;;;;;;;;;;5091917;28;20448;-71
2022/02/17 03:25:06;;;;;;;0.70;0.43;;;;;;;;;;5091427;28;20650;-71
2022/02/17 03:27:33;;;;;;;0.80;0.43;;;;;;;;;;5091118;28;20563;-69
2022/02/17 03:30:02;;;;;;;0.60;0.40;;;;;;;;;;5091014;28;20445;-69
2022/02/17 03:32:29;;;;;;;0.80;0.40;;;;;;;;;;5090769;28;20461;-70
2022/02/17 03:34:56;;;;;;;0.80;0.40;;;;;;;;;;5091116;28;20535;-69
2022/02/17 03:37:23;;;;;;;0.80;0.40;;;;;;;;;;5091204;28;20476;-70
2022/02/17 03:39:50;;;;;;;0.77;0.40;;;;;;;;;;5092345;28;20528;-70
2022/02/17 03:42:18;;;;;;;0.60;0.40;;;;;;;;;;5091440;28;20463;-69
2022/02/17 03:44:45;;;;;;;0.60;0.40;;;;;;;;;;5091788;28;20440;-69
2022/02/17 03:47:14;;;;;;;0.60;0.40;;;;;;;;;;5090508;28;20448;-69
2022/02/17 03:49:41;;;;;;;0.60;0.40;;;;;;;;;;5091718;28;20452;-70
2022/02/17 03:52:08;;;;;;;0.60;0.40;;;;;;;;;;5091552;28;20488;-69
2022/02/17 03:54:35;;;;;;;0.60;0.40;;;;;;;;;;5090713;28;20532;-70
2022/02/17 03:57:02;;;;;;;0.70;0.47;;;;;;;;;;5091791;28;20480;-69
2022/02/17 03:59:30;;;;;;;0.60;0.40;;;;;;;;;;5090140;28;20695;-70
2022/02/17 04:01:59;;;;;;;0.60;0.40;;;;;;;;;;5081321;28;20440;-70
2022/02/17 04:04:28;;;;;;;0.80;0.40;;;;;;;;;;5090322;28;20453;-70
2022/02/17 04:06:55;;;;;;;0.70;0.47;;;;;;;;;;5091565;28;20948;-70
2022/02/17 04:09:22;;;;;;;0.60;0.40;;;;;;;;;;5090197;28;20530;-69
2022/02/17 04:11:49;;;;;;;0.70;0.50;;;;;;;;;;5091149;28;20535;-69
2022/02/17 04:14:17;;;;;;;1.00;0.50;;;;;;;;;;5089481;28;20452;-69
2022/02/17 04:16:44;;;;;;;1.57;0.50;;;;;;;;;;5091020;28;20477;-70
2022/02/17 04:19:11;;;;;;;0.70;0.50;;;;;;;;;;5090732;28;20945;-70
2022/02/17 04:21:39;;;;;;;0.70;0.53;;;;;;;;;;5090497;28;20579;-70
2022/02/17 04:24:07;;;;;;;0.90;0.40;;;;;;;;;;5090650;28;20539;-70
2022/02/17 04:26:34;;;;;;;1.10;0.43;;;;;;;;;;5090674;28;20457;-70
2022/02/17 04:29:01;;;;;;;1.17;0.40;;;;;;;;;;5090488;28;20445;-70
2022/02/17 04:31:28;;;;;;;0.60;0.40;;;;;;;;;;5089861;28;20572;-71
2022/02/17 04:33:56;;;;;;;0.63;0.50;;;;;;;;;;5090002;28;20445;-71
2022/02/17 04:36:23;;;;;;;0.70;0.47;;;;;;;;;;5089746;28;20453;-70
2022/02/17 04:38:52;;;;;;;0.80;0.60;;;;;;;;;;5090626;28;20528;-71
2022/02/17 04:44:04;;;;;;;0.70;0.50;;;;;;;;;;5087848;28;20423;-71
2022/02/17 04:46:31;;;;;;;0.60;0.40;;;;;;;;;;5090304;28;20444;-70
2022/02/17 04:48:58;;;;;;;0.77;0.47;;;;;;;;;;5090651;28;20957;-71
2022/02/17 04:51:26;;;;;;;0.77;0.57;;;;;;;;;;5089538;28;20535;-71
2022/02/17 04:53:54;;;;;;;0.60;0.40;;;;;;;;;;5089993;28;20487;-70
2022/02/17 04:56:21;;;;;;;0.70;0.40;;;;;;;;;;5090200;28;20890;-69
2022/02/17 04:58:49;;;;;;;0.70;0.40;;;;;;;;;;5090538;28;20472;-71
2022/02/17 05:01:16;;;;;;;1.80;0.50;;;;;;;;;;5084768;28;20452;-70
2022/02/17 05:03:43;;;;;;;0.80;0.60;;;;;;;;;;5090705;28;20444;-70
2022/02/17 05:06:10;;;;;;;0.60;0.40;;;;;;;;;;5089575;28;20436;-70
2022/02/17 05:08:37;;;;;;;0.87;0.40;;;;;;;;;;5088154;28;20465;-71
2022/02/17 05:11:06;;;;;;;0.80;0.50;;;;;;;;;;5087621;28;20444;-69
2022/02/17 05:13:33;;;;;;;1.20;0.50;;;;;;;;;;5081219;28;20540;-70
2022/02/17 05:16:01;;;;;;;0.60;0.43;;;;;;;;;;5087845;28;20480;-71
2022/02/17 05:18:28;;;;;;;0.60;0.40;;;;;;;;;;5090486;28;20480;-73
2022/02/17 05:20:55;;;;;;;0.70;0.40;;;;;;;;;;5090569;28;20449;-71
2022/02/17 05:23:23;;;;;;;1.23;0.50;;;;;;;;;;5090172;28;20535;-70
2022/02/17 05:25:50;;;;;;;0.70;0.50;;;;;;;;;;5087218;28;20449;-73
2022/02/17 05:28:18;;;;;;;1.27;0.50;;;;;;;;;;5094307;28;20618;-71
2022/02/17 05:30:47;;;;;;;0.90;0.40;;;;;;;;;;5094418;28;20481;-74
2022/02/17 05:33:15;;;;;;;1.10;0.70;;;;;;;;;;5094334;28;20985;-75
2022/02/17 05:35:42;;;;;;;0.93;0.60;;;;;;;;;;5094094;28;20980;-72
2022/02/17 05:38:09;;;;;;;0.70;0.50;;;;;;;;;;5094339;28;20486;-72
2022/02/17 05:40:37;;;;;;;1.30;0.70;;;;;;;;;;5093827;28;20528;-73
2022/02/17 05:43:04;;;;;;;0.80;0.50;;;;;;;;;;5094386;28;20472;-71
2022/02/17 05:45:33;;;;;;;2.70;1.37;;;;;;;;;;5093283;28;20446;-72
2022/02/17 05:48:00;;;;;;;1.60;0.60;;;;;;;;;;5094595;28;20452;-72
2022/02/17 05:50:27;;;;;;;1.03;0.50;;;;;;;;;;5092677;28;20439;-72
2022/02/17 05:52:54;;;;;;;2.00;0.50;;;;;;;;;;5094431;28;20575;-73
2022/02/17 05:55:22;;;;;;;1.00;0.60;;;;;;;;;;5094662;28;20444;-72
2022/02/17 05:57:49;;;;;;;1.10;0.70;;;;;;;;;;5094491;28;20486;-72
2022/02/17 06:00:16;;;;;;;1.17;0.67;;;;;;;;;;5094474;28;20868;-72
2022/02/17 06:02:45;;;;;;;1.43;0.57;;;;;;;;;;5095268;28;20480;-72
2022/02/17 06:05:16;;;;;;;1.10;0.60;;;;;;;;;;5093598;28;20447;-72
2022/02/17 06:07:44;;;;;;;2.03;0.80;;;;;;;;;;5095362;28;20441;-72
2022/02/17 06:10:11;;;;;;;1.60;0.63;;;;;;;;;;5094179;28;20479;-72
2022/02/17 06:12:41;;;;;;;2.80;1.00;;;12.30;1.00;;;;;;5093835;28;20527;-72
2022/02/17 06:15:09;;;;;;;4.47;0.83;;;12.40;1.00;;;;;;5094075;28;20452;-72
2022/02/17 06:17:36;;;;;;;1.10;0.63;;;12.40;99.90;;;;;;5093207;28;20496;-71
2022/02/17 06:20:05;;;;;;;2.10;0.70;;;12.40;17.20;;;;;;5093317;28;20451;-73
2022/02/17 06:22:32;;;;;;;2.00;0.80;;;12.30;99.90;;;;;;5092647;28;20453;-72
2022/02/17 06:24:59;;;;;;;1.80;0.80;;;12.30;99.90;;;;;;5093657;28;20532;-72
2022/02/17 06:27:26;;;;;;;3.30;0.70;;;12.30;99.90;;;;;;5092586;28;20461;-72
2022/02/17 06:29:53;;;;;;;1.07;0.63;;;12.20;1.00;;;;;;5093813;28;20445;-72
2022/02/17 06:32:19;;;;;;;2.73;0.90;;;12.10;1.00;;;;;;5093149;28;20445;-72
2022/02/17 06:34:46;;;;;;;2.10;0.87;;;12.00;1.00;;;;;;5093648;28;20531;-72
2022/02/17 06:37:14;;;;;;;2.80;1.20;;;12.00;1.00;;;;;;5092654;28;20472;-72
2022/02/17 06:39:41;;;;;;;2.20;1.03;;;11.90;61.40;;;;;;5093472;28;20448;-72
2022/02/17 06:42:09;;;;;;;2.90;0.90;;;11.90;99.90;;;;;;5093626;28;20459;-73
2022/02/17 06:44:36;;;;;;;2.90;1.30;;;11.80;99.90;;;;;;5093122;28;20839;-73
2022/02/17 06:47:03;;;;;;;5.20;1.07;;;11.80;99.90;;;;;;5093284;28;20451;-72
2022/02/17 06:49:32;;;;;;;5.13;2.40;;;11.80;94.90;;;;;;5092028;28;20444;-72
2022/02/17 06:52:01;;;;;;;4.57;1.53;;;11.80;1.00;;;;;;5092873;28;20527;-73
2022/02/17 06:54:29;;;;;;;2.60;1.20;;;11.80;99.90;;;;;;5092784;28;20440;-72
2022/02/17 06:56:56;;;;;;;2.83;1.00;;;11.80;88.10;;;;;;5092900;28;20539;-72
2022/02/17 06:59:23;;;;;;;4.17;1.57;;;11.80;27.20;;;;;;5092362;28;20571;-72
2022/02/17 07:01:50;;;;;;;5.50;1.27;;;11.80;99.90;;;;;;5092921;28;20444;-72
2022/02/17 07:04:18;;;;;;;8.07;1.57;;;11.70;1.00;;;;;;5092209;28;20527;-72
2022/02/17 07:06:47;;;;;;;2.23;1.47;;;11.70;99.90;;;;;;5105510;28;20463;-72
2022/02/17 07:09:14;;;;;;;7.60;1.73;;;11.70;99.90;;;;;;5092107;28;20475;-72
2022/02/17 07:11:44;;;;;;;5.40;2.60;;;11.80;1.00;;;;;;5092566;28;20530;-72
2022/02/17 07:14:11;;;;;;;4.60;1.20;;;11.80;1.00;;;;;;5092723;28;20794;-72
2022/02/17 07:16:37;;;;;;;7.43;1.70;;;11.80;1.00;;;;;;5092287;28;20537;-72
2022/02/17 07:19:04;;;;;;;5.13;1.00;;;11.80;1.00;;;;;;5092044;28;20480;-72
2022/02/17 07:21:32;;;;;;;3.90;1.20;;;11.80;1.00;;;;;;5091266;28;20541;-72
2022/02/17 07:23:58;;;;;;;4.87;1.67;;;11.70;99.90;;;;;;5092711;28;20459;-73
2022/02/17 07:26:25;;;;;;;2.93;1.53;;;11.60;1.00;;;;;;5091904;28;20445;-71
2022/02/17 07:28:53;;;;;;;9.30;1.60;;;11.50;99.90;;;;;;5092500;28;20449;-73
2022/02/17 07:31:21;;;;;;;5.80;1.40;;;11.50;1.00;;;;;;5091174;28;20453;-71
2022/02/17 07:33:48;;;;;;;5.33;1.57;;;11.50;1.00;;;;;;5091999;28;20452;-71
2022/02/17 07:36:16;;;;;;;3.57;1.60;;;11.50;1.00;;;;;;5091818;28;20441;-71
2022/02/17 07:38:43;;;;;;;5.70;1.83;;;11.40;1.00;;;;;;5092735;28;20472;-71
2022/02/17 07:41:11;;;;;;;4.50;1.47;;;11.40;1.00;;;;;;5091674;28;20916;-71
2022/02/17 07:43:39;;;;;;;4.30;1.43;;;11.50;1.00;;;;;;5092713;28;20461;-72
2022/02/17 07:46:07;;;;;;;6.33;1.37;;;11.40;1.00;;;;;;5093322;28;20495;-72
2022/02/17 07:48:34;;;;;;;3.10;1.40;;;11.50;1.00;;;;;;5091213;28;20484;-71
2022/02/17 07:51:02;;;;;;;2.50;1.33;;;11.50;99.90;;;;;;5091430;28;20542;-71
2022/02/17 07:53:29;;;;;;;4.60;1.37;;;11.70;99.90;;;;;;5090952;28;20571;-71
2022/02/17 07:55:56;;;;;;;6.17;1.77;;;11.80;99.90;;;;;;5091741;28;20989;-72
2022/02/17 07:58:23;;;;;;;7.77;1.47;;;11.80;99.90;;;;;;5090818;28;20476;-72
2022/02/17 08:00:50;;;;;;;4.63;1.20;;;11.80;99.90;;;;;;5095506;28;20940;-72
2022/02/17 08:03:18;;;;;;;3.53;1.30;;;11.80;1.00;;;;;;5106000;28;20484;-71
2022/02/17 08:05:45;;;;;;;3.90;1.53;;;11.80;99.90;;;;;;5098381;28;20451;-72
2022/02/17 08:08:13;;;;;;;5.13;1.57;;;11.80;1.00;;;;;;5097546;28;20451;-72
2022/02/17 08:10:40;;;;;;;4.57;1.20;;;11.90;1.00;;;;;;5091587;28;20444;-72
2022/02/17 08:13:09;;;;;;;3.73;1.37;;;12.00;71.30;;;;;;5078721;28;20459;-72
2022/02/17 08:15:36;;;;;;;2.60;1.40;;;12.10;1.00;;;;;;5091203;28;20441;-72
2022/02/17 08:18:03;;;;;;;3.47;1.23;;;12.20;1.00;;;;;;5091220;28;20502;-71
2022/02/17 08:20:31;;;;;;;3.20;1.30;;;12.30;1.00;;;;;;5090003;28;20557;-72
2022/02/17 08:22:58;;;;;;;3.50;1.10;;;12.30;1.00;;;;;;5091624;28;20484;-72
2022/02/17 08:25:26;;;;;;;8.13;1.70;;;12.30;1.00;;;;;;5090608;28;20448;-71
2022/02/17 08:27:53;;;;;;;6.33;1.90;;;12.30;1.00;;;;;;5090982;28;20440;-72
2022/02/17 08:30:21;;;;;;;5.20;2.03;;;;;;;;;;5076727;28;20444;-71
2022/02/17 08:32:48;;;;;;;7.70;2.70;;;;;;;;;;5091046;28;20502;-71
2022/02/17 08:35:16;;;;;;;7.53;1.67;;;;;;;;;;5090167;28;20448;-71
2022/02/17 08:37:45;;;;;;;6.23;1.70;;;;;;;;;;5091507;28;20479;-71
2022/02/17 08:40:13;;;;;;;10.10;2.20;;;;;;;;;;5090477;28;21027;-71
2022/02/17 08:42:41;;;;;;;5.73;1.47;;;;;;;;;;5091364;28;20449;-71
2022/02/17 08:45:09;;;;;;;3.73;1.57;;;;;;;;;;5091265;28;20889;-71
2022/02/17 08:47:37;;;;;;;5.00;1.63;;;;;;;;;;5091198;28;20459;-71
2022/02/17 08:50:06;;;;;;;5.67;1.93;;;;;;;;;;5090924;28;20449;-71
2022/02/17 08:52:33;;;;;;;8.97;2.00;;;;;;;;;;5090192;28;20533;-71
2022/02/17 08:55:02;;;;;;;9.70;3.13;;;;;;;;;;5091161;28;20449;-71
2022/02/17 08:57:29;;;;;;;5.97;1.80;;;;;;;;;;5090400;28;20870;-71
2022/02/17 08:59:56;;;;;;;3.57;1.70;;;;;;;;;;5094374;28;20475;-71
2022/02/17 09:02:23;;;;;;;7.23;2.43;;;;;;;;;;5097069;28;20451;-71
2022/02/17 09:04:50;;;;;;;4.33;1.80;;;;;;;;;;5097668;28;20494;-71
2022/02/17 09:07:18;;;;;;;7.93;1.70;;;;;;;;;;5097077;28;20472;-71
2022/02/17 09:09:45;;;;;;;9.60;2.67;;;;;;;;;;5097087;28;20950;-71
2022/02/17 09:12:13;;;;;;;5.87;1.67;;;;;;;;;;5097141;28;20535;-71
2022/02/17 09:14:41;;;;;;;4.67;1.90;;;;;;;;;;5097588;28;20450;-71
2022/02/17 09:17:08;;;;;;;10.77;2.00;;;;;;;;;;5097741;28;20448;-71
2022/02/17 09:19:36;;;;;;;6.70;2.67;;;;;;;;;;5096127;28;21063;-71
2022/02/17 09:22:03;;;;;;;7.80;2.17;;;;;;;;;;5097301;28;20555;-70
2022/02/17 09:24:30;;;;;;;5.60;2.03;;;;;;;;;;5096811;28;20440;-71
2022/02/17 09:26:58;;;;;;;6.40;2.80;;;;;;;;;;5097411;28;20519;-71
2022/02/17 09:29:26;;;;;;;10.43;2.23;;;;;;;;;;5096397;28;20452;-71
2022/02/17 09:31:53;;;;;;;6.30;2.10;;;;;;;;;;5097397;28;20527;-71
2022/02/17 09:34:21;;;;;;;6.33;1.80;;;;;;;;;;5095964;28;21272;-71
2022/02/17 09:36:48;;;;;;;5.80;1.90;;;;;;;;;;5096989;28;20886;-71
2022/02/17 09:39:15;;;;;;;5.60;2.70;;;;;;;;;;5095960;28;20507;-71
2022/02/17 09:41:43;;;;;;;8.63;2.17;;;;;;;;;;5097013;28;20951;-71
2022/02/17 09:44:11;;;;;;;4.53;1.60;;;;;;;;;;5096908;28;20535;-70
2022/02/17 09:46:44;;;;;;;6.40;2.33;;;;;;;;;;5097077;28;21004;-70
2022/02/17 09:49:15;;;;;;;5.97;1.97;;;;;;;;;;5096607;28;20596;-71
2022/02/17 09:51:42;;;;;;;4.97;1.73;;;;;;;;;;5096978;28;20866;-70
2022/02/17 09:54:10;;;;;;;7.00;2.47;;;;;;;;;;5097371;28;20440;-71
2022/02/17 09:56:37;;;;;;;7.90;2.13;;;;;;;;;;5096932;28;20448;-70
2022/02/17 09:59:04;;;;;;;10.10;2.77;;;;;;;;;;5096952;28;20566;-71
2022/02/17 10:01:31;;;;;;;13.33;2.70;;;;;;;;;;5096470;28;20531;-71
2022/02/17 10:04:16;;;;;;;6.90;1.90;;;;;;;;;;5097034;28;20460;-71
2022/02/17 10:06:46;;;;;;;8.10;2.23;;;;;;;;;;5084656;28;20468;-71
2022/02/17 10:09:13;;;;;;;12.00;2.63;;;;;;;;;;5096051;28;20944;-71
2022/02/17 10:11:41;;;;;;;9.90;2.30;;;;;;;;;;5093998;28;20436;-71
2022/02/17 10:14:09;;;;;;;9.40;2.57;;;;;;;;;;5093789;28;20451;-70
2022/02/17 10:16:56;;;;;;;8.53;3.00;;;;;;;;;;5093288;28;20456;-71
2022/02/17 10:19:25;;;;;;;7.50;2.33;;;;;;;;;;5087058;28;20481;-71
2022/02/17 10:22:00;;;;;;;9.53;1.90;;;;;;;;;;5086268;28;20990;-72
2022/02/17 10:24:31;;;;;;;6.47;2.30;;;;;;;;;;5092672;28;20480;-71
2022/02/17 10:27:03;;;;;;;6.33;1.87;;;;;;;;;;5093633;28;20532;-71
2022/02/17 10:29:30;;;;;;;8.13;2.67;;;;;;;;;;5092284;28;20452;-71
2022/02/17 10:32:05;;;;;;;8.03;2.23;;;;;;;;;;5093118;28;21015;-72
2022/02/17 10:34:32;;;;;;;10.30;2.50;;;;;;;;;;5092180;28;20451;-72
2022/02/17 10:37:00;;;;;;;6.63;3.27;;;;;;;;;;5093236;28;20448;-71
2022/02/17 10:39:28;;;;;;;9.70;2.30;;;;;;;;;;5092277;28;20479;-71
2022/02/17 10:41:56;;;;;;;6.77;1.83;;;;;;;;;;5093022;28;20443;-71
2022/02/17 10:44:24;;;;;;;7.20;2.47;;;;;;;;;;5092358;28;20543;-71
2022/02/17 10:46:52;;;;;;;8.50;3.03;;;;;;;;;;5093226;28;20531;-71
2022/02/17 10:49:20;;;;;;;8.67;2.00;;;;;;;;;;5091959;28;20582;-71
2022/02/17 10:51:47;;;;;;;13.53;3.13;;;;;;;;;;5092919;28;20456;-70
2022/02/17 10:54:20;;;;;;;7.10;2.20;;;;;;;;;;5093026;28;20457;-72
2022/02/17 10:56:51;;;;;;;7.87;2.03;;;;;;;;;;5093236;28;20441;-71
2022/02/17 11:02:01;;;;;;;7.03;2.53;;;;;;;;;;5080539;28;20999;-71
2022/02/17 11:04:29;;;;;;;7.70;2.27;;;;;;;;;;5091918;28;20453;-72
2022/02/17 11:06:56;;;;;;;5.77;2.10;;;;;;;;;;5093030;28;20441;-72
2022/02/17 11:09:25;;;;;;;6.73;2.00;;;;;;;;;;5091490;28;20444;-72
2022/02/17 11:11:53;;;;;;;10.80;2.97;;;;;;;;;;5092880;28;20454;-71
2022/02/17 11:14:35;;;;;;;3.30;1.40;;;;;;;;;;5091869;28;20441;-72
2022/02/17 11:17:03;;;;;;;6.90;2.00;;;;;;;;;;5092842;28;20447;-71
2022/02/17 11:19:31;;;;;;;8.13;2.70;;;;;;;;;;5090735;28;21058;-72
2022/02/17 11:21:58;;;;;;;6.97;2.00;;;;;;;;;;5091895;28;20452;-72
2022/02/17 11:24:26;;;;;;;9.13;2.70;;;;;;;;;;5090643;28;20441;-72
2022/02/17 11:27:03;;;;;;;4.20;1.67;;;;;;;;;;5092150;28;21037;-72
2022/02/17 11:29:32;;;;;;;9.23;2.83;;;;;;;;;;5079335;28;20428;-72
2022/02/17 11:32:02;;;;;;;5.67;1.90;;;;;;;;;;5091943;28;20453;-72
2022/02/17 11:34:36;;;;;;;4.77;1.70;;;;;;;;;;5091303;28;20547;-70
2022/02/17 11:37:32;;;;;;;14.00;2.53;;;;;;;;;;5091895;28;20441;-70
2022/02/17 11:40:02;;;;;;;5.03;2.17;;;;;;;;;;5092082;28;20476;-70
2022/02/17 11:42:29;;;;;;;7.97;2.00;;;;;;;;;;5091507;28;20448;-70
2022/02/17 11:45:15;;;;;;;12.30;3.10;;;;;;;;;;5091955;28;20448;-71
2022/02/17 11:48:00;;;;;;;9.47;2.63;;;;;;;;;;5092365;28;20444;-70
2022/02/17 11:50:35;;;;;;;7.40;2.03;;;;;;;;;;5078240;28;20463;-71
2022/02/17 11:53:20;;;;;;;8.60;2.20;;;;;;;;;;5091997;28;20522;-71
2022/02/17 11:55:49;;;;;;;5.20;2.17;;;;;;;;;;5092152;28;20494;-72
2022/02/17 11:58:34;;;;;;;8.10;2.87;;;;;;;;;;5091550;28;20803;-71
2022/02/17 12:01:16;;;;;;;6.60;2.40;;;;;;;;;;5091135;28;20487;-71
2022/02/17 12:04:01;;;;;;;7.47;2.60;;;;;;;;;;5091665;28;20523;-71
2022/02/17 12:06:38;;;;;;;7.13;2.37;;;;;;;;;;5089915;28;20474;-70
2022/02/17 12:09:06;;;;;;;7.70;2.33;;;;;;;;;;5091250;28;20444;-71
2022/02/17 12:11:37;;;;;;;10.17;2.40;;;;;;;;;;5090869;28;20460;-71
2022/02/17 12:14:05;;;;;;;11.47;3.70;;;;;;;;;;5091506;28;20447;-71
2022/02/17 12:16:34;;;;;;;14.90;3.47;;;;;;;;;;5090334;28;20555;-71
2022/02/17 12:19:09;;;;;;;13.23;2.73;;;;;;;;;;5091045;28;20451;-71
2022/02/17 12:21:37;;;;;;;13.40;2.83;;;12.30;1.00;;;;;;5090667;28;20546;-71
2022/02/17 12:24:04;;;;;;;12.23;2.70;;;12.60;99.90;;;;;;5091475;28;20448;-71
2022/02/17 12:26:40;;;;;;;8.13;2.80;;;12.70;99.90;;;;;;5090620;28;21149;-71
2022/02/17 12:29:26;;;;;;;9.53;2.57;;;12.80;99.90;;;;;;5091149;28;20454;-70
2022/02/17 12:31:54;;;;;;;12.50;3.03;;;12.60;99.90;;;;;;5091565;28;20455;-70
2022/02/17 12:34:21;;;;;;;10.27;3.50;;;12.70;99.90;;;;;;5089908;28;20467;-70
2022/02/17 12:36:48;;;;;;;12.90;3.23;;;12.90;99.90;;;;;;5091064;28;20534;-71
2022/02/17 12:39:15;;;;;;;14.97;3.30;;;13.00;99.90;;;;;;5091903;28;20980;-70
2022/02/17 12:41:56;;;;;;;11.20;2.50;;;13.00;99.90;;;;;;5091751;28;20441;-71
2022/02/17 12:44:30;;;;;;;6.03;2.50;;;13.00;99.90;;;;;;5091044;28;20437;-71
2022/02/17 12:46:57;;;;;;;9.40;2.37;;;13.20;99.90;;;;;;5091215;28;20441;-70
2022/02/17 12:49:25;;;;;;;7.20;2.37;;;13.10;99.90;;;;;;5089736;28;21008;-71
2022/02/17 12:51:52;;;;;;;10.27;2.70;;;13.00;99.90;;;;;;5090630;28;20456;-70
2022/02/17 12:54:19;;;;;;;8.77;2.80;;;13.10;99.90;;;;;;5090415;28;20524;-71
2022/02/17 12:56:47;;;;;;;7.10;2.33;;;13.20;99.90;;;;;;5090927;28;20445;-70
2022/02/17 12:59:15;;;;;;;4.63;2.27;;;13.20;99.90;;;;;;5090167;28;20444;-71
2022/02/17 13:01:46;;;;;;;6.93;3.37;;;13.20;99.90;;;;;;5090964;28;20477;-71
2022/02/17 13:04:17;;;;;;;7.40;2.90;;;13.30;99.90;;;;;;5090756;28;20471;-71
2022/02/17 13:06:44;;;;;;;17.37;3.73;;;13.40;99.90;;;;;;5079232;28;20452;-71
2022/02/17 13:09:16;;;;;;;8.83;2.60;;;13.40;99.90;;;;;;5090288;28;20456;-71
2022/02/17 13:11:48;;;;;;;11.13;2.73;;;13.40;99.90;;;;;;5091304;28;20793;-70
2022/02/17 13:14:15;;;;;;;4.77;1.97;;;13.50;99.90;;;;;;5090618;28;20473;-70
2022/02/17 13:16:49;;;;;;;9.80;2.97;;;13.50;99.90;;;;;;5091338;28;20440;-71
2022/02/17 13:19:37;;;;;;;8.17;3.20;;;13.50;99.90;;;;;;5089714;28;20532;-70
2022/02/17 13:22:04;;;;;;;8.63;3.20;;;13.70;99.90;;;;;;5091092;28;20471;-72
2022/02/17 13:24:31;;;;;;;11.90;3.10;;;13.90;99.90;;;;;;5076913;28;20528;-72
2022/02/17 13:27:09;;;;;;;10.27;3.70;;;13.80;99.90;;;;;;5090881;28;20444;-71
2022/02/17 13:29:50;;;;;;;10.93;2.50;;;13.80;99.90;;;;;;5089759;28;20448;-71
2022/02/17 13:32:19;;;;;;;10.33;2.77;;;13.80;99.90;;;;;;5090283;28;20544;-70
2022/02/17 13:34:46;;;;;;;9.10;2.97;;;14.00;99.90;;;;;;5090705;28;20449;-70
2022/02/17 13:37:13;;;;;;;9.77;3.27;;;;;;;;;;5090487;28;20494;-72
2022/02/17 13:39:41;;;;;;;10.20;2.57;;;;;;;;;;5090460;28;20491;-71
2022/02/17 13:42:10;;;;;;;6.27;3.27;;;14.20;99.90;;;;;;5090767;28;20444;-70
2022/02/17 13:44:39;;;;;;;10.00;3.53;;;14.00;99.90;;;;;;5090581;28;20452;-71
2022/02/17 13:47:08;;;;;;;7.00;2.33;;;14.10;99.90;;;;;;5093222;28;20736;-70
2022/02/17 13:49:38;;;;;;;9.20;3.33;;;14.00;99.90;;;;;;5094595;28;20523;-71
2022/02/17 13:52:06;;;;;;;9.27;3.40;;;14.10;99.90;;;;;;5095122;28;20499;-71
2022/02/17 13:54:52;;;;;;;8.63;2.43;;;13.80;99.90;;;;;;5094560;28;20440;-72
2022/02/17 13:57:20;;;;;;;8.77;2.73;;;13.70;99.90;;;;;;5083023;28;20464;-71
2022/02/17 13:59:47;;;;;;;10.30;3.17;;;13.60;99.90;;;;;;5094120;28;20890;-71
2022/02/17 14:02:25;;;;;;;11.90;3.30;;;13.70;99.90;;;;;;5094066;28;20436;-72
2022/02/17 14:04:59;;;;;;;10.57;3.70;;;14.00;99.90;;;;;;5093792;28;20429;-72
2022/02/17 14:07:27;;;;;;;9.17;3.40;;;14.10;99.90;;;;;;5080259;28;20460;-71
2022/02/17 14:09:54;;;;;;;9.27;2.57;;;13.80;99.90;;;;;;5093917;28;20449;-71
2022/02/17 14:12:21;;;;;;;6.90;3.47;;;13.80;99.90;;;;;;5092901;28;20481;-71
2022/02/17 14:14:47;;;;;;;5.40;2.37;;;13.80;99.90;;;;;;5093882;28;20543;-71
2022/02/17 14:17:17;;;;;;;11.30;2.87;;;;;;;;;;5093214;28;20509;-71
2022/02/17 14:19:44;;;;;;;10.93;2.67;;;;;;;;;;5093884;28;20540;-71